Cape Hunter — XCAS1 — position and weather

sailwx.info

Track history (hours):
 
Tides and Currents Weather Stations Pressure Air Temp Water Temp Dewpoint Dewpoint Depression Visibility Wind Speed Wind Dir Waves Ship Positions

Cape Hunter

Last reported at 2014-Oct-03 02:18 UTC. Time now 2014-Nov-28 01:29 UTC.
Position N 19°14' W 095°55'.
Warning: this ship's position is 55 days out of date.

; draft 3.8 m.

MMSI: 345070095.

Date/timePositionNaut miles runAvg speedWind from/ knotsBaromVisibWave heightAir tempDewpointWater temp
2014-Oct-03 02:18N 19°14' W 095°55'6 8.0
2014-Oct-03 01:33N 19°12' W 096°01'7 7.2
2014-Oct-03 00:33N 19°13' W 096°08'0 0.1
2014-Oct-02 23:33N 19°13' W 096°08'0 0.0
2014-Oct-02 22:33N 19°13' W 096°08'0 0.0
2014-Oct-02 21:33N 19°13' W 096°08'0 0.0
2014-Oct-02 20:33N 19°13' W 096°08'0 0.0
2014-Oct-02 19:33N 19°13' W 096°08'0 0.0
2014-Oct-02 18:33N 19°13' W 096°08'0 0.0
2014-Oct-02 17:33N 19°13' W 096°08'0 0.0
2014-Oct-02 16:33N 19°13' W 096°08'0 0.0
2014-Oct-02 15:33N 19°13' W 096°08'0 0.0
2014-Oct-02 14:33N 19°13' W 096°08'0 0.0
2014-Oct-02 13:33N 19°13' W 096°08'0 0.0
2014-Oct-02 12:33N 19°13' W 096°08'0 0.0
2014-Oct-02 11:33N 19°13' W 096°08'0 0.0
2014-Oct-02 10:33N 19°13' W 096°08'0 0.0
2014-Oct-02 09:33N 19°13' W 096°08'0 0.0
2014-Oct-02 08:33N 19°13' W 096°08'0 0.0
2014-Oct-02 07:33N 19°13' W 096°08'0 0.0
2014-Oct-02 06:33N 19°13' W 096°08'0 0.0
2014-Oct-02 05:33N 19°13' W 096°08'0 0.0
2014-Oct-02 04:33N 19°13' W 096°08'0 0.0
2014-Oct-02 03:33N 19°13' W 096°08'5 5.0
2014-Oct-02 02:33N 19°10' W 096°04'0 0.1
2014-Oct-02 01:33N 19°10' W 096°04'0 0.0
2014-Oct-02 00:33N 19°10' W 096°04'0 0.0
2014-Oct-01 23:33N 19°10' W 096°04'0 0.0
2014-Oct-01 22:33N 19°10' W 096°04'0 0.0
2014-Oct-01 21:33N 19°10' W 096°04'0 0.0
2014-Oct-01 20:33N 19°10' W 096°04'0 0.0
2014-Oct-01 19:33N 19°10' W 096°04'0 0.0
2014-Oct-01 18:33N 19°10' W 096°04'0 0.0
2014-Oct-01 17:33N 19°10' W 096°04'0 0.0
2014-Oct-01 16:33N 19°10' W 096°04'0 0.0
2014-Oct-01 15:33N 19°10' W 096°04'0 0.0
2014-Oct-01 14:33N 19°10' W 096°04'3 3.3
2014-Oct-01 13:33N 19°11' W 096°01'  
Track history (hours):
 
Tides and Currents Weather Stations Pressure Air Temp Water Temp Dewpoint Dewpoint Depression Visibility Wind Speed Wind Dir Waves Ship Positions

Cape Hunter

Last reported at 2014-Oct-03 02:18 UTC. Time now 2014-Nov-28 01:29 UTC.
Position N 19°14' W 095°55'.
Warning: this ship's position is 55 days out of date.

; draft 3.8 m.

MMSI: 345070095.

Date/timePositionNaut miles runAvg speedWind from/ knotsBaromVisibWave heightAir tempDewpointWater temp
2014-Oct-03 02:18N 19°14' W 095°55'6 8.0
2014-Oct-03 01:33N 19°12' W 096°01'7 7.2
2014-Oct-03 00:33N 19°13' W 096°08'0 0.1
2014-Oct-02 23:33N 19°13' W 096°08'0 0.0
2014-Oct-02 22:33N 19°13' W 096°08'0 0.0
2014-Oct-02 21:33N 19°13' W 096°08'0 0.0
2014-Oct-02 20:33N 19°13' W 096°08'0 0.0
2014-Oct-02 19:33N 19°13' W 096°08'0 0.0
2014-Oct-02 18:33N 19°13' W 096°08'0 0.0
2014-Oct-02 17:33N 19°13' W 096°08'0 0.0
2014-Oct-02 16:33N 19°13' W 096°08'0 0.0
2014-Oct-02 15:33N 19°13' W 096°08'0 0.0
2014-Oct-02 14:33N 19°13' W 096°08'0 0.0
2014-Oct-02 13:33N 19°13' W 096°08'0 0.0
2014-Oct-02 12:33N 19°13' W 096°08'0 0.0
2014-Oct-02 11:33N 19°13' W 096°08'0 0.0
2014-Oct-02 10:33N 19°13' W 096°08'0 0.0
2014-Oct-02 09:33N 19°13' W 096°08'0 0.0
2014-Oct-02 08:33N 19°13' W 096°08'0 0.0
2014-Oct-02 07:33N 19°13' W 096°08'0 0.0
2014-Oct-02 06:33N 19°13' W 096°08'0 0.0
2014-Oct-02 05:33N 19°13' W 096°08'0 0.0
2014-Oct-02 04:33N 19°13' W 096°08'0 0.0
2014-Oct-02 03:33N 19°13' W 096°08'5 5.0
2014-Oct-02 02:33N 19°10' W 096°04'0 0.1
2014-Oct-02 01:33N 19°10' W 096°04'0 0.0
2014-Oct-02 00:33N 19°10' W 096°04'0 0.0
2014-Oct-01 23:33N 19°10' W 096°04'0 0.0
2014-Oct-01 22:33N 19°10' W 096°04'0 0.0
2014-Oct-01 21:33N 19°10' W 096°04'0 0.0
2014-Oct-01 20:33N 19°10' W 096°04'0 0.0
2014-Oct-01 19:33N 19°10' W 096°04'0 0.0
2014-Oct-01 18:33N 19°10' W 096°04'0 0.0
2014-Oct-01 17:33N 19°10' W 096°04'0 0.0
2014-Oct-01 16:33N 19°10' W 096°04'0 0.0
2014-Oct-01 15:33N 19°10' W 096°04'0 0.0
2014-Oct-01 14:33N 19°10' W 096°04'3 3.3
2014-Oct-01 13:33N 19°11' W 096°01'  

Dump ship's entire track history